sensor_id;sensor_type;location;lat;lon;timestamp;temperature;humidity
53695;DHT22;39588;51.124;7.190;2023-01-30T00:00:54;1.70;99.90
53695;DHT22;39588;51.124;7.190;2023-01-30T00:03:21;1.70;99.90
53695;DHT22;39588;51.124;7.190;2023-01-30T00:05:47;1.70;99.90
53695;DHT22;39588;51.124;7.190;2023-01-30T00:20:23;1.90;99.90
53695;DHT22;39588;51.124;7.190;2023-01-30T00:22:48;1.90;99.90
53695;DHT22;39588;51.124;7.190;2023-01-30T00:25:14;2.00;99.90
53695;DHT22;39588;51.124;7.190;2023-01-30T00:27:40;2.00;99.90
53695;DHT22;39588;51.124;7.190;2023-01-30T00:32:32;2.00;99.90
53695;DHT22;39588;51.124;7.190;2023-01-30T00:39:50;2.20;99.90
53695;DHT22;39588;51.124;7.190;2023-01-30T00:42:16;2.20;99.90
53695;DHT22;39588;51.124;7.190;2023-01-30T00:45:10;2.20;99.90
53695;DHT22;39588;51.124;7.190;2023-01-30T00:47:54;2.30;99.90
53695;DHT22;39588;51.124;7.190;2023-01-30T00:55:12;2.30;99.90
53695;DHT22;39588;51.124;7.190;2023-01-30T00:57:37;2.30;99.90
53695;DHT22;39588;51.124;7.190;2023-01-30T01:00:03;2.40;99.90
53695;DHT22;39588;51.124;7.190;2023-01-30T01:02:30;2.40;99.90
53695;DHT22;39588;51.124;7.190;2023-01-30T01:04:56;2.40;99.90
53695;DHT22;39588;51.124;7.190;2023-01-30T01:07:21;2.40;99.90
53695;DHT22;39588;51.124;7.190;2023-01-30T01:09:47;2.50;99.90
53695;DHT22;39588;51.124;7.190;2023-01-30T01:14:38;2.50;99.90
53695;DHT22;39588;51.124;7.190;2023-01-30T01:17:04;2.50;99.90
53695;DHT22;39588;51.124;7.190;2023-01-30T01:19:30;2.60;99.90
53695;DHT22;39588;51.124;7.190;2023-01-30T01:21:55;2.60;99.90
53695;DHT22;39588;51.124;7.190;2023-01-30T01:29:14;2.70;99.90
53695;DHT22;39588;51.124;7.190;2023-01-30T01:31:41;2.70;99.90
53695;DHT22;39588;51.124;7.190;2023-01-30T01:34:07;2.70;99.90
53695;DHT22;39588;51.124;7.190;2023-01-30T01:36:33;2.80;99.90
53695;DHT22;39588;51.124;7.190;2023-01-30T01:38:58;2.80;99.90
53695;DHT22;39588;51.124;7.190;2023-01-30T01:41:24;2.80;99.90
53695;DHT22;39588;51.124;7.190;2023-01-30T01:44:09;2.80;99.90
53695;DHT22;39588;51.124;7.190;2023-01-30T01:46:50;2.80;99.90
53695;DHT22;39588;51.124;7.190;2023-01-30T01:49:25;2.80;99.90
53695;DHT22;39588;51.124;7.190;2023-01-30T01:52:05;2.80;99.90
53695;DHT22;39588;51.124;7.190;2023-01-30T01:54:33;2.90;99.90
53695;DHT22;39588;51.124;7.190;2023-01-30T01:57:05;2.90;99.90
53695;DHT22;39588;51.124;7.190;2023-01-30T01:59:39;2.90;99.90
53695;DHT22;39588;51.124;7.190;2023-01-30T02:02:42;2.90;99.90
53695;DHT22;39588;51.124;7.190;2023-01-30T02:05:12;2.90;99.90
53695;DHT22;39588;51.124;7.190;2023-01-30T02:08:06;2.90;99.90
53695;DHT22;39588;51.124;7.190;2023-01-30T02:11:00;2.90;99.90
53695;DHT22;39588;51.124;7.190;2023-01-30T02:13:27;3.00;99.90
53695;DHT22;39588;51.124;7.190;2023-01-30T02:15:56;3.00;99.90
53695;DHT22;39588;51.124;7.190;2023-01-30T02:18:23;3.00;99.90
53695;DHT22;39588;51.124;7.190;2023-01-30T02:32:08;3.10;99.90
53695;DHT22;39588;51.124;7.190;2023-01-30T02:34:49;3.10;99.90
53695;DHT22;39588;51.124;7.190;2023-01-30T02:47:20;3.30;99.90
53695;DHT22;39588;51.124;7.190;2023-01-30T02:49:53;3.30;99.90
53695;DHT22;39588;51.124;7.190;2023-01-30T02:52:20;3.30;99.90
53695;DHT22;39588;51.124;7.190;2023-01-30T02:54:46;3.20;99.90
53695;DHT22;39588;51.124;7.190;2023-01-30T02:57:20;3.30;99.90
53695;DHT22;39588;51.124;7.190;2023-01-30T02:59:50;3.20;99.90
53695;DHT22;39588;51.124;7.190;2023-01-30T03:04:55;3.20;99.90
53695;DHT22;39588;51.124;7.190;2023-01-30T03:07:59;3.30;99.90
53695;DHT22;39588;51.124;7.190;2023-01-30T03:14:23;3.30;99.90
53695;DHT22;39588;51.124;7.190;2023-01-30T03:16:20;3.40;99.90
53695;DHT22;39588;51.124;7.190;2023-01-30T03:18:47;3.30;99.90
53695;DHT22;39588;51.124;7.190;2023-01-30T03:21:13;3.40;99.90
53695;DHT22;39588;51.124;7.190;2023-01-30T03:23:39;3.40;99.90
53695;DHT22;39588;51.124;7.190;2023-01-30T03:26:07;3.40;99.90
53695;DHT22;39588;51.124;7.190;2023-01-30T03:28:35;3.40;99.90
53695;DHT22;39588;51.124;7.190;2023-01-30T03:31:01;3.40;99.90
53695;DHT22;39588;51.124;7.190;2023-01-30T03:43:11;3.50;99.90
53695;DHT22;39588;51.124;7.190;2023-01-30T03:48:03;3.50;99.90
53695;DHT22;39588;51.124;7.190;2023-01-30T03:50:29;3.50;99.90
53695;DHT22;39588;51.124;7.190;2023-01-30T03:52:54;3.50;99.90
53695;DHT22;39588;51.124;7.190;2023-01-30T03:57:46;3.50;99.90
53695;DHT22;39588;51.124;7.190;2023-01-30T04:05:04;3.50;99.90
53695;DHT22;39588;51.124;7.190;2023-01-30T04:07:30;3.60;99.90
53695;DHT22;39588;51.124;7.190;2023-01-30T04:14:48;3.60;99.90
53695;DHT22;39588;51.124;7.190;2023-01-30T04:17:13;3.60;99.90
53695;DHT22;39588;51.124;7.190;2023-01-30T04:19:39;3.60;99.90
53695;DHT22;39588;51.124;7.190;2023-01-30T04:22:06;3.60;99.90
53695;DHT22;39588;51.124;7.190;2023-01-30T04:24:31;3.70;99.90
53695;DHT22;39588;51.124;7.190;2023-01-30T04:26:57;3.70;99.90
53695;DHT22;39588;51.124;7.190;2023-01-30T04:39:06;3.70;99.90
53695;DHT22;39588;51.124;7.190;2023-01-30T04:41:32;3.70;99.90
53695;DHT22;39588;51.124;7.190;2023-01-30T04:43:57;3.70;99.90
53695;DHT22;39588;51.124;7.190;2023-01-30T05:01:22;3.80;99.90
53695;DHT22;39588;51.124;7.190;2023-01-30T05:11:07;3.90;99.90
53695;DHT22;39588;51.124;7.190;2023-01-30T05:13:33;3.90;99.90
53695;DHT22;39588;51.124;7.190;2023-01-30T05:15:58;3.80;99.90
53695;DHT22;39588;51.124;7.190;2023-01-30T05:20:50;3.80;99.90
53695;DHT22;39588;51.124;7.190;2023-01-30T05:23:15;3.80;99.90
53695;DHT22;39588;51.124;7.190;2023-01-30T05:25:41;3.80;99.90
53695;DHT22;39588;51.124;7.190;2023-01-30T05:28:06;3.80;99.90
53695;DHT22;39588;51.124;7.190;2023-01-30T05:37:51;3.90;99.90
53695;DHT22;39588;51.124;7.190;2023-01-30T05:52:26;3.90;99.90
53695;DHT22;39588;51.124;7.190;2023-01-30T05:54:52;4.00;99.90
53695;DHT22;39588;51.124;7.190;2023-01-30T05:57:18;4.00;99.90
53695;DHT22;39588;51.124;7.190;2023-01-30T05:59:43;4.00;99.90
53695;DHT22;39588;51.124;7.190;2023-01-30T06:02:09;4.00;99.90
53695;DHT22;39588;51.124;7.190;2023-01-30T06:04:34;4.10;99.90
53695;DHT22;39588;51.124;7.190;2023-01-30T06:07:00;4.10;99.90
53695;DHT22;39588;51.124;7.190;2023-01-30T06:09:26;4.10;99.90
53695;DHT22;39588;51.124;7.190;2023-01-30T06:19:11;4.30;99.90
53695;DHT22;39588;51.124;7.190;2023-01-30T06:21:37;4.30;99.90
53695;DHT22;39588;51.124;7.190;2023-01-30T06:24:02;4.40;99.90
53695;DHT22;39588;51.124;7.190;2023-01-30T06:26:28;4.30;99.90
53695;DHT22;39588;51.124;7.190;2023-01-30T06:33:46;4.40;99.90
53695;DHT22;39588;51.124;7.190;2023-01-30T06:36:13;4.40;99.90
53695;DHT22;39588;51.124;7.190;2023-01-30T06:38:39;4.40;99.90
53695;DHT22;39588;51.124;7.190;2023-01-30T06:41:05;4.40;99.90
53695;DHT22;39588;51.124;7.190;2023-01-30T06:45:58;4.40;99.90
53695;DHT22;39588;51.124;7.190;2023-01-30T06:48:23;4.50;99.90
53695;DHT22;39588;51.124;7.190;2023-01-30T06:50:49;4.50;99.90
53695;DHT22;39588;51.124;7.190;2023-01-30T06:58:09;4.50;99.90
53695;DHT22;39588;51.124;7.190;2023-01-30T07:00:37;4.50;99.90
53695;DHT22;39588;51.124;7.190;2023-01-30T07:03:07;4.50;99.90
53695;DHT22;39588;51.124;7.190;2023-01-30T07:05:37;4.50;99.90
53695;DHT22;39588;51.124;7.190;2023-01-30T07:08:02;4.60;99.90
53695;DHT22;39588;51.124;7.190;2023-01-30T07:10:28;4.60;99.90
53695;DHT22;39588;51.124;7.190;2023-01-30T07:12:56;4.60;99.90
53695;DHT22;39588;51.124;7.190;2023-01-30T07:15:21;4.60;99.90
53695;DHT22;39588;51.124;7.190;2023-01-30T07:20:13;4.70;99.90
53695;DHT22;39588;51.124;7.190;2023-01-30T07:22:39;4.60;99.90
53695;DHT22;39588;51.124;7.190;2023-01-30T07:27:31;4.70;99.90
53695;DHT22;39588;51.124;7.190;2023-01-30T07:29:56;4.70;99.90
53695;DHT22;39588;51.124;7.190;2023-01-30T07:32:22;4.70;99.90
53695;DHT22;39588;51.124;7.190;2023-01-30T07:46:59;4.80;99.90
53695;DHT22;39588;51.124;7.190;2023-01-30T07:49:25;4.80;99.90
53695;DHT22;39588;51.124;7.190;2023-01-30T07:51:51;4.90;99.90
53695;DHT22;39588;51.124;7.190;2023-01-30T07:54:17;4.90;99.90
53695;DHT22;39588;51.124;7.190;2023-01-30T07:59:10;4.90;99.90
53695;DHT22;39588;51.124;7.190;2023-01-30T08:01:36;4.90;99.90
53695;DHT22;39588;51.124;7.190;2023-01-30T08:04:02;4.90;99.90
53695;DHT22;39588;51.124;7.190;2023-01-30T08:06:27;5.00;99.90
53695;DHT22;39588;51.124;7.190;2023-01-30T08:16:12;5.10;99.90
53695;DHT22;39588;51.124;7.190;2023-01-30T08:21:05;5.20;99.90
53695;DHT22;39588;51.124;7.190;2023-01-30T08:23:32;5.20;99.90
53695;DHT22;39588;51.124;7.190;2023-01-30T08:28:26;5.20;99.90
53695;DHT22;39588;51.124;7.190;2023-01-30T08:30:52;5.30;99.90
53695;DHT22;39588;51.124;7.190;2023-01-30T08:35:47;5.30;99.90
53695;DHT22;39588;51.124;7.190;2023-01-30T08:38:13;5.30;99.90
53695;DHT22;39588;51.124;7.190;2023-01-30T08:40:39;5.30;99.90
53695;DHT22;39588;51.124;7.190;2023-01-30T08:43:05;5.40;99.90
53695;DHT22;39588;51.124;7.190;2023-01-30T08:45:31;5.30;99.90
53695;DHT22;39588;51.124;7.190;2023-01-30T08:57:43;5.60;99.90
53695;DHT22;39588;51.124;7.190;2023-01-30T09:00:09;5.60;99.90
53695;DHT22;39588;51.124;7.190;2023-01-30T09:07:27;5.70;99.90
53695;DHT22;39588;51.124;7.190;2023-01-30T09:12:19;5.60;99.90
53695;DHT22;39588;51.124;7.190;2023-01-30T09:22:03;5.50;99.90
53695;DHT22;39588;51.124;7.190;2023-01-30T09:26:56;5.40;99.90
53695;DHT22;39588;51.124;7.190;2023-01-30T09:36:41;5.40;99.90
53695;DHT22;39588;51.124;7.190;2023-01-30T09:39:07;5.40;99.90
53695;DHT22;39588;51.124;7.190;2023-01-30T09:47:41;5.30;99.90
53695;DHT22;39588;51.124;7.190;2023-01-30T10:00:42;5.40;99.90
53695;DHT22;39588;51.124;7.190;2023-01-30T10:03:18;5.40;99.90
53695;DHT22;39588;51.124;7.190;2023-01-30T10:34:13;5.40;99.90
53695;DHT22;39588;51.124;7.190;2023-01-30T10:37:04;5.40;99.90
53695;DHT22;39588;51.124;7.190;2023-01-30T10:39:50;5.30;99.90
53695;DHT22;39588;51.124;7.190;2023-01-30T10:42:22;5.30;99.90
53695;DHT22;39588;51.124;7.190;2023-01-30T10:44:51;5.30;99.90
53695;DHT22;39588;51.124;7.190;2023-01-30T10:50:46;5.30;99.90
53695;DHT22;39588;51.124;7.190;2023-01-30T10:56:46;5.30;99.90
53695;DHT22;39588;51.124;7.190;2023-01-30T11:05:02;5.30;99.90
53695;DHT22;39588;51.124;7.190;2023-01-30T11:07:31;5.40;99.90
53695;DHT22;39588;51.124;7.190;2023-01-30T11:09:57;5.40;99.90
53695;DHT22;39588;51.124;7.190;2023-01-30T11:12:23;5.40;99.80
53695;DHT22;39588;51.124;7.190;2023-01-30T11:15:00;5.40;99.80
53695;DHT22;39588;51.124;7.190;2023-01-30T11:22:24;5.40;99.50
53695;DHT22;39588;51.124;7.190;2023-01-30T11:25:02;5.40;99.40
53695;DHT22;39588;51.124;7.190;2023-01-30T11:27:31;5.50;99.40
53695;DHT22;39588;51.124;7.190;2023-01-30T11:30:11;5.50;99.30
53695;DHT22;39588;51.124;7.190;2023-01-30T11:32:37;5.50;99.40
53695;DHT22;39588;51.124;7.190;2023-01-30T11:37:33;5.50;99.20
53695;DHT22;39588;51.124;7.190;2023-01-30T11:42:30;5.60;99.30
53695;DHT22;39588;51.124;7.190;2023-01-30T11:44:58;5.50;99.20
53695;DHT22;39588;51.124;7.190;2023-01-30T11:47:27;5.60;99.10
53695;DHT22;39588;51.124;7.190;2023-01-30T11:49:57;5.70;98.90
53695;DHT22;39588;51.124;7.190;2023-01-30T11:52:30;5.60;98.90
53695;DHT22;39588;51.124;7.190;2023-01-30T11:55:00;5.60;98.80
53695;DHT22;39588;51.124;7.190;2023-01-30T11:57:39;5.60;98.90
53695;DHT22;39588;51.124;7.190;2023-01-30T12:02:38;5.60;98.80
53695;DHT22;39588;51.124;7.190;2023-01-30T12:05:12;5.70;98.80
53695;DHT22;39588;51.124;7.190;2023-01-30T12:07:43;5.70;98.80
53695;DHT22;39588;51.124;7.190;2023-01-30T12:12:54;5.60;98.90
53695;DHT22;39588;51.124;7.190;2023-01-30T12:15:24;5.70;98.60
53695;DHT22;39588;51.124;7.190;2023-01-30T12:18:12;5.70;98.80
53695;DHT22;39588;51.124;7.190;2023-01-30T12:23:14;5.70;98.60
53695;DHT22;39588;51.124;7.190;2023-01-30T12:26:00;5.70;98.60
53695;DHT22;39588;51.124;7.190;2023-01-30T13:01:27;6.10;97.60
53695;DHT22;39588;51.124;7.190;2023-01-30T13:07:06;6.10;97.30
53695;DHT22;39588;51.124;7.190;2023-01-30T13:12:51;6.20;97.00
53695;DHT22;39588;51.124;7.190;2023-01-30T13:18:25;6.40;96.90
53695;DHT22;39588;51.124;7.190;2023-01-30T13:21:10;6.40;96.70
53695;DHT22;39588;51.124;7.190;2023-01-30T13:26:13;6.10;97.20
53695;DHT22;39588;51.124;7.190;2023-01-30T13:28:58;6.00;97.50
53695;DHT22;39588;51.124;7.190;2023-01-30T13:31:30;5.90;97.10
53695;DHT22;39588;51.124;7.190;2023-01-30T13:34:21;5.90;97.30
53695;DHT22;39588;51.124;7.190;2023-01-30T13:42:00;6.10;97.20
53695;DHT22;39588;51.124;7.190;2023-01-30T13:44:29;6.20;97.10
53695;DHT22;39588;51.124;7.190;2023-01-30T13:46:58;6.20;96.80
53695;DHT22;39588;51.124;7.190;2023-01-30T13:49:44;6.30;96.70
53695;DHT22;39588;51.124;7.190;2023-01-30T13:52:23;6.20;96.50
53695;DHT22;39588;51.124;7.190;2023-01-30T13:57:47;6.20;96.80
53695;DHT22;39588;51.124;7.190;2023-01-30T14:08:24;6.30;97.20
53695;DHT22;39588;51.124;7.190;2023-01-30T14:16:12;6.30;96.90
53695;DHT22;39588;51.124;7.190;2023-01-30T14:21:22;6.30;96.70
53695;DHT22;39588;51.124;7.190;2023-01-30T14:23:57;6.30;96.50
53695;DHT22;39588;51.124;7.190;2023-01-30T14:31:48;6.20;96.30
53695;DHT22;39588;51.124;7.190;2023-01-30T14:34:37;6.20;96.30
53695;DHT22;39588;51.124;7.190;2023-01-30T14:39:52;6.20;96.80
53695;DHT22;39588;51.124;7.190;2023-01-30T14:42:19;6.20;96.80
53695;DHT22;39588;51.124;7.190;2023-01-30T15:03:14;6.30;96.90
53695;DHT22;39588;51.124;7.190;2023-01-30T15:05:44;6.20;96.60
53695;DHT22;39588;51.124;7.190;2023-01-30T15:08:19;6.20;96.90
53695;DHT22;39588;51.124;7.190;2023-01-30T15:16:19;6.10;97.10
53695;DHT22;39588;51.124;7.190;2023-01-30T15:24:31;6.10;97.10
53695;DHT22;39588;51.124;7.190;2023-01-30T15:32:29;6.10;97.10
53695;DHT22;39588;51.124;7.190;2023-01-30T15:35:01;6.10;97.10
53695;DHT22;39588;51.124;7.190;2023-01-30T15:37:39;6.10;97.30
53695;DHT22;39588;51.124;7.190;2023-01-30T15:45:59;6.00;97.40
53695;DHT22;39588;51.124;7.190;2023-01-30T15:50:48;6.00;97.50
53695;DHT22;39588;51.124;7.190;2023-01-30T15:53:16;6.00;97.60
53695;DHT22;39588;51.124;7.190;2023-01-30T15:55:43;6.00;97.60
53695;DHT22;39588;51.124;7.190;2023-01-30T15:58:13;5.90;97.60
53695;DHT22;39588;51.124;7.190;2023-01-30T16:00:49;5.90;97.60
53695;DHT22;39588;51.124;7.190;2023-01-30T16:03:19;5.90;97.50
53695;DHT22;39588;51.124;7.190;2023-01-30T16:05:48;5.90;97.50
53695;DHT22;39588;51.124;7.190;2023-01-30T16:08:21;5.90;97.60
53695;DHT22;39588;51.124;7.190;2023-01-30T16:10:48;5.90;97.60
53695;DHT22;39588;51.124;7.190;2023-01-30T16:20:48;5.80;97.70
53695;DHT22;39588;51.124;7.190;2023-01-30T16:28:21;5.80;97.90
53695;DHT22;39588;51.124;7.190;2023-01-30T16:30:47;5.70;97.90
53695;DHT22;39588;51.124;7.190;2023-01-30T16:33:15;5.70;98.00
53695;DHT22;39588;51.124;7.190;2023-01-30T16:35:43;5.70;98.10
53695;DHT22;39588;51.124;7.190;2023-01-30T16:41:00;5.70;98.10
53695;DHT22;39588;51.124;7.190;2023-01-30T16:48:30;5.70;98.10
53695;DHT22;39588;51.124;7.190;2023-01-30T16:53:24;5.60;98.20
53695;DHT22;39588;51.124;7.190;2023-01-30T16:56:13;5.70;98.20
53695;DHT22;39588;51.124;7.190;2023-01-30T16:58:44;5.70;98.10
53695;DHT22;39588;51.124;7.190;2023-01-30T17:03:39;5.70;98.20
53695;DHT22;39588;51.124;7.190;2023-01-30T17:06:08;5.70;98.20
53695;DHT22;39588;51.124;7.190;2023-01-30T17:08:51;5.60;98.20
53695;DHT22;39588;51.124;7.190;2023-01-30T17:11:38;5.60;98.30
53695;DHT22;39588;51.124;7.190;2023-01-30T17:14:21;5.60;98.20
53695;DHT22;39588;51.124;7.190;2023-01-30T17:24:20;5.60;98.40
53695;DHT22;39588;51.124;7.190;2023-01-30T17:36:45;5.60;98.40
53695;DHT22;39588;51.124;7.190;2023-01-30T17:39:15;5.60;98.40
53695;DHT22;39588;51.124;7.190;2023-01-30T17:41:42;5.60;98.40
53695;DHT22;39588;51.124;7.190;2023-01-30T17:44:08;5.60;98.30
53695;DHT22;39588;51.124;7.190;2023-01-30T17:53:53;5.60;98.40
53695;DHT22;39588;51.124;7.190;2023-01-30T17:56:33;5.60;98.40
53695;DHT22;39588;51.124;7.190;2023-01-30T17:59:03;5.60;98.50
53695;DHT22;39588;51.124;7.190;2023-01-30T18:01:29;5.60;98.50
53695;DHT22;39588;51.124;7.190;2023-01-30T18:03:55;5.60;98.50
53695;DHT22;39588;51.124;7.190;2023-01-30T18:08:47;5.60;98.50
53695;DHT22;39588;51.124;7.190;2023-01-30T18:13:40;5.60;98.40
53695;DHT22;39588;51.124;7.190;2023-01-30T18:16:24;5.60;98.50
53695;DHT22;39588;51.124;7.190;2023-01-30T18:21:17;5.60;98.50
53695;DHT22;39588;51.124;7.190;2023-01-30T18:26:12;5.60;98.50
53695;DHT22;39588;51.124;7.190;2023-01-30T18:28:38;5.70;98.50
53695;DHT22;39588;51.124;7.190;2023-01-30T18:31:04;5.60;98.50
53695;DHT22;39588;51.124;7.190;2023-01-30T18:33:32;5.60;98.50
53695;DHT22;39588;51.124;7.190;2023-01-30T18:36:01;5.50;98.50
53695;DHT22;39588;51.124;7.190;2023-01-30T18:38:28;5.60;98.50
53695;DHT22;39588;51.124;7.190;2023-01-30T18:40:55;5.60;98.50
53695;DHT22;39588;51.124;7.190;2023-01-30T18:43:20;5.60;98.50
53695;DHT22;39588;51.124;7.190;2023-01-30T18:45:46;5.50;98.60
53695;DHT22;39588;51.124;7.190;2023-01-30T18:55:31;5.40;98.70
53695;DHT22;39588;51.124;7.190;2023-01-30T18:57:58;5.40;98.70
53695;DHT22;39588;51.124;7.190;2023-01-30T19:02:53;5.40;98.70
53695;DHT22;39588;51.124;7.190;2023-01-30T19:05:19;5.40;98.80
53695;DHT22;39588;51.124;7.190;2023-01-30T19:07:45;5.40;98.70
53695;DHT22;39588;51.124;7.190;2023-01-30T19:10:11;5.40;98.70
53695;DHT22;39588;51.124;7.190;2023-01-30T19:15:25;5.40;98.80
53695;DHT22;39588;51.124;7.190;2023-01-30T19:20:17;5.30;98.80
53695;DHT22;39588;51.124;7.190;2023-01-30T19:22:43;5.30;98.90
53695;DHT22;39588;51.124;7.190;2023-01-30T19:27:36;5.30;98.90
53695;DHT22;39588;51.124;7.190;2023-01-30T19:30:02;5.30;98.80
53695;DHT22;39588;51.124;7.190;2023-01-30T19:32:28;5.30;98.80
53695;DHT22;39588;51.124;7.190;2023-01-30T19:34:54;5.20;98.70
53695;DHT22;39588;51.124;7.190;2023-01-30T19:37:19;5.20;98.70
53695;DHT22;39588;51.124;7.190;2023-01-30T19:47:05;5.20;98.70
53695;DHT22;39588;51.124;7.190;2023-01-30T19:49:30;5.20;98.70
53695;DHT22;39588;51.124;7.190;2023-01-30T19:51:56;5.10;98.70
53695;DHT22;39588;51.124;7.190;2023-01-30T19:54:26;5.10;98.70
53695;DHT22;39588;51.124;7.190;2023-01-30T19:56:52;5.20;98.80
53695;DHT22;39588;51.124;7.190;2023-01-30T20:06:36;5.10;98.90
53695;DHT22;39588;51.124;7.190;2023-01-30T20:09:05;5.00;99.00
53695;DHT22;39588;51.124;7.190;2023-01-30T20:11:33;5.10;99.00
53695;DHT22;39588;51.124;7.190;2023-01-30T20:13:59;5.10;99.00
53695;DHT22;39588;51.124;7.190;2023-01-30T20:16:26;5.10;99.00
53695;DHT22;39588;51.124;7.190;2023-01-30T20:19:04;5.10;99.10
53695;DHT22;39588;51.124;7.190;2023-01-30T20:21:31;5.10;99.10
53695;DHT22;39588;51.124;7.190;2023-01-30T20:23:57;5.10;99.20
53695;DHT22;39588;51.124;7.190;2023-01-30T20:26:33;5.10;99.20
53695;DHT22;39588;51.124;7.190;2023-01-30T20:29:00;5.10;99.20
53695;DHT22;39588;51.124;7.190;2023-01-30T20:31:28;5.00;99.30
53695;DHT22;39588;51.124;7.190;2023-01-30T20:36:24;4.90;99.40
53695;DHT22;39588;51.124;7.190;2023-01-30T20:38:50;4.80;99.60
53695;DHT22;39588;51.124;7.190;2023-01-30T20:41:24;4.80;99.70
53695;DHT22;39588;51.124;7.190;2023-01-30T20:43:52;4.80;99.80
53695;DHT22;39588;51.124;7.190;2023-01-30T20:46:22;4.80;99.70
53695;DHT22;39588;51.124;7.190;2023-01-30T20:48:48;4.70;99.70
53695;DHT22;39588;51.124;7.190;2023-01-30T20:51:20;4.60;99.80
53695;DHT22;39588;51.124;7.190;2023-01-30T20:53:51;4.50;99.90
53695;DHT22;39588;51.124;7.190;2023-01-30T20:56:18;4.50;99.90
53695;DHT22;39588;51.124;7.190;2023-01-30T20:58:44;4.50;99.90
53695;DHT22;39588;51.124;7.190;2023-01-30T21:01:19;4.60;99.90
53695;DHT22;39588;51.124;7.190;2023-01-30T21:03:47;4.60;99.90
53695;DHT22;39588;51.124;7.190;2023-01-30T21:06:15;4.60;99.90
53695;DHT22;39588;51.124;7.190;2023-01-30T21:08:42;4.50;99.90
53695;DHT22;39588;51.124;7.190;2023-01-30T21:11:10;3.30;99.60
53695;DHT22;39588;51.124;7.190;2023-01-30T21:13:36;4.40;99.90
53695;DHT22;39588;51.124;7.190;2023-01-30T21:16:12;4.30;99.90
53695;DHT22;39588;51.124;7.190;2023-01-30T21:18:40;4.40;99.90
53695;DHT22;39588;51.124;7.190;2023-01-30T21:21:08;4.70;99.90
53695;DHT22;39588;51.124;7.190;2023-01-30T21:26:04;4.30;99.80
53695;DHT22;39588;51.124;7.190;2023-01-30T21:28:30;4.30;99.90
53695;DHT22;39588;51.124;7.190;2023-01-30T21:31:06;4.20;99.90
53695;DHT22;39588;51.124;7.190;2023-01-30T21:33:32;4.20;99.90
53695;DHT22;39588;51.124;7.190;2023-01-30T21:35:58;4.30;99.90
53695;DHT22;39588;51.124;7.190;2023-01-30T21:41:18;4.40;99.90
53695;DHT22;39588;51.124;7.190;2023-01-30T21:44:03;4.40;99.90
53695;DHT22;39588;51.124;7.190;2023-01-30T21:46:35;4.40;99.90
53695;DHT22;39588;51.124;7.190;2023-01-30T21:56:22;4.30;99.90
53695;DHT22;39588;51.124;7.190;2023-01-30T21:58:49;4.30;99.90
53695;DHT22;39588;51.124;7.190;2023-01-30T22:01:15;4.20;99.90
53695;DHT22;39588;51.124;7.190;2023-01-30T22:03:41;4.20;99.90
53695;DHT22;39588;51.124;7.190;2023-01-30T22:06:08;4.20;99.90
53695;DHT22;39588;51.124;7.190;2023-01-30T22:11:08;4.20;99.90
53695;DHT22;39588;51.124;7.190;2023-01-30T22:13:35;4.10;99.90
53695;DHT22;39588;51.124;7.190;2023-01-30T22:16:05;4.10;99.90
53695;DHT22;39588;51.124;7.190;2023-01-30T22:18:32;4.10;99.90
53695;DHT22;39588;51.124;7.190;2023-01-30T22:21:16;4.10;99.90
53695;DHT22;39588;51.124;7.190;2023-01-30T22:23:44;4.20;99.90
53695;DHT22;39588;51.124;7.190;2023-01-30T22:26:11;4.20;99.90
53695;DHT22;39588;51.124;7.190;2023-01-30T22:28:38;4.30;99.90
53695;DHT22;39588;51.124;7.190;2023-01-30T22:31:16;4.30;99.90
53695;DHT22;39588;51.124;7.190;2023-01-30T22:33:44;4.30;99.90
53695;DHT22;39588;51.124;7.190;2023-01-30T22:36:10;4.30;99.90
53695;DHT22;39588;51.124;7.190;2023-01-30T22:41:05;4.40;99.90
53695;DHT22;39588;51.124;7.190;2023-01-30T22:43:35;4.40;99.90
53695;DHT22;39588;51.124;7.190;2023-01-30T22:46:06;4.40;99.90
53695;DHT22;39588;51.124;7.190;2023-01-30T22:48:32;4.40;99.90
53695;DHT22;39588;51.124;7.190;2023-01-30T22:51:15;4.30;99.90
53695;DHT22;39588;51.124;7.190;2023-01-30T22:53:44;4.30;99.90
53695;DHT22;39588;51.124;7.190;2023-01-30T22:56:22;4.40;99.90
53695;DHT22;39588;51.124;7.190;2023-01-30T22:58:48;4.40;99.90
53695;DHT22;39588;51.124;7.190;2023-01-30T23:01:24;4.40;99.90
53695;DHT22;39588;51.124;7.190;2023-01-30T23:04:05;4.30;99.90
53695;DHT22;39588;51.124;7.190;2023-01-30T23:06:32;4.40;99.90
53695;DHT22;39588;51.124;7.190;2023-01-30T23:08:58;4.30;99.90
53695;DHT22;39588;51.124;7.190;2023-01-30T23:11:33;4.30;99.90
53695;DHT22;39588;51.124;7.190;2023-01-30T23:14:10;4.30;99.90
53695;DHT22;39588;51.124;7.190;2023-01-30T23:16:36;4.30;99.90
53695;DHT22;39588;51.124;7.190;2023-01-30T23:19:03;4.30;99.90
53695;DHT22;39588;51.124;7.190;2023-01-30T23:21:38;4.40;99.90
53695;DHT22;39588;51.124;7.190;2023-01-30T23:24:10;4.30;99.90
53695;DHT22;39588;51.124;7.190;2023-01-30T23:26:39;4.30;99.90
53695;DHT22;39588;51.124;7.190;2023-01-30T23:29:07;4.30;99.90
53695;DHT22;39588;51.124;7.190;2023-01-30T23:31:34;4.40;99.90
53695;DHT22;39588;51.124;7.190;2023-01-30T23:34:03;4.40;99.90
53695;DHT22;39588;51.124;7.190;2023-01-30T23:36:29;4.30;99.90
53695;DHT22;39588;51.124;7.190;2023-01-30T23:38:58;4.40;99.90
53695;DHT22;39588;51.124;7.190;2023-01-30T23:41:27;4.30;99.90
53695;DHT22;39588;51.124;7.190;2023-01-30T23:43:53;4.30;99.90
53695;DHT22;39588;51.124;7.190;2023-01-30T23:46:34;4.30;99.90
53695;DHT22;39588;51.124;7.190;2023-01-30T23:49:04;4.20;99.90
53695;DHT22;39588;51.124;7.190;2023-01-30T23:51:32;4.30;99.90
53695;DHT22;39588;51.124;7.190;2023-01-30T23:53:58;4.20;99.90
53695;DHT22;39588;51.124;7.190;2023-01-30T23:56:26;4.30;99.90
53695;DHT22;39588;51.124;7.190;2023-01-30T23:58:53;4.30;99.90
